• Join FlightAware (Why Join?)
  • Login
  • US Flag 
11:20AM EDT


 

Airport Tracker/Info


-or-


 

Live Flight TrackerFlight Track Log ✈ EJM6 ✈ 23-Jul-2013 ✈ KTEB - KMDW

Flight Track Log - Related Links

Times and Time Zones

All times are in EDT time to prevent confusion due to time zone crossing. See the EJM6 flight status page for this flight to view local times or setup timezone preferences in your user account.

Time Position Orientation Groundspeed Altitude Reporting Facility
EDT Latitude Longitude Course Direction KTS MPH feet Rate Location/Type
06:42AM 40.8333 -74.1167 270° West 168 193 1,600  Level New York TRACON
06:43AM 40.8167 -74.1833 252° West 211 243 4,500 3,000 Climbing New York TRACON
06:44AM 40.8333 -74.2833 282° West 249 287 7,900 2,880 Climbing New York TRACON
06:45AM 40.8500 -74.3667 285° West 272 313 10,600 2,400 Climbing New York TRACON
06:46AM 40.8667 -74.4667 282° West 307 353 12,700 2,160 Climbing New York TRACON
06:47AM 40.8833 -74.8453 270° West  Level FlightAware Approximate
06:47AM 40.8853 -74.6575 277° West 318 366 16,200  Level New York Center
06:48AM 40.8917 -74.7706 274° West 340 391 17,000 1,080 Climbing New York Center
06:49AM 40.9014 -74.9164 275° West 388 447 18,400 1,380 Climbing New York Center
06:50AM 40.9108 -75.0600 275° West 394 453 19,900 1,440 Climbing New York Center
06:51AM 40.9075 -75.2081 268° West 400 460 21,300 1,560 Climbing New York Center
06:52AM 40.8744 -75.3622 254° West 405 466 23,100 1,620 Climbing New York Center
06:53AM 40.8417 -75.5053 253° West 405 466 24,600 1,260 Climbing New York Center
06:54AM 40.8117 -75.6267 252° West 405 466 25,700 1,200 Climbing New York Center
06:55AM 40.7786 -75.7697 253° West 405 466 27,100 1,380 Climbing New York Center
06:56AM 40.7456 -75.9097 253° West 405 466 28,500 1,380 Climbing New York Center
06:57AM 40.7106 -76.0467 251° West 405 466 29,900 1,920 Climbing New York Center
06:58AM 40.6794 -76.1811 253° West 399 459 32,400 1,740 Climbing New York Center
06:59AM 40.6483 -76.3100 252° West 383 441 33,400 900 Climbing New York Center
07:00AM 40.6214 -76.4392 255° West 378 435 34,300 900 Climbing New York Center
07:01AM 40.5919 -76.5733 254° West 373 429 35,300 1,020 Climbing New York Center
07:02AM 40.5853 -76.7067 266° West 373 429 36,400 1,020 Climbing New York Center
07:03AM 40.6075 -76.8453 282° West 368 423 37,400 840 Climbing New York Center
07:04AM 40.6256 -76.9808 280° West 374 430 38,100 600 Climbing New York Center
07:05AM 40.6453 -77.1167 281° West 374 430 38,700 540 Climbing New York Center
07:06AM 40.6647 -77.2581 280° West 379 436 39,300 540 Climbing New York Center
07:07AM 40.6847 -77.3886 281° West 373 429 39,900 300 Climbing New York Center
07:08AM 40.7039 -77.5275 280° West 379 436 40,000  Climbing New York Center
07:10AM 40.7453 -77.8425 280° West 393 452 40,000  Level Cleveland Center
07:11AM 40.7631 -77.9869 279° West 393 452 40,000  Level Cleveland Center
07:12AM 40.7831 -78.1289 281° West 393 452 40,000  Level Cleveland Center
07:13AM 40.7983 -78.2708 278° West 393 452 40,000  Level Cleveland Center
07:14AM 40.8158 -78.4103 279° West 393 452 40,000  Level Cleveland Center
07:15AM 40.8331 -78.5522 279° West 393 452 40,000  Level Cleveland Center
07:16AM 40.8586 -78.7053 282° West 388 447 40,000  Level Cleveland Center
07:17AM 40.8775 -78.8503 280° West 393 452 40,000  Level Cleveland Center
07:18AM 40.8942 -78.9928 279° West 393 452 40,000  Level Cleveland Center
07:19AM 40.9106 -79.1378 279° West 393 452 40,000  Level Cleveland Center
07:20AM 40.9292 -79.2833 280° West 399 459 40,000  Level Cleveland Center
07:21AM 40.9472 -79.4286 279° West 404 465 40,000  Level Cleveland Center
07:22AM 40.9633 -79.5767 278° West 409 471 40,000  Level Cleveland Center
07:23AM 40.9811 -79.7250 279° West 409 471 40,000  Level Cleveland Center
07:24AM 40.9989 -79.8733 279° West 409 471 40,000  Level Cleveland Center
07:25AM 41.0122 -80.0136 277° West 409 471 40,000  Level Cleveland Center
07:26AM 41.0317 -80.1647 280° West 414 476 40,000  Level Cleveland Center
07:27AM 41.0467 -80.3161 278° West 414 476 40,000  Level Cleveland Center
07:28AM 41.0636 -80.4703 278° West 419 482 40,000  Level Cleveland Center
07:29AM 41.0803 -80.6189 279° West 424 488 40,000  Level Cleveland Center
07:30AM 41.0947 -80.7733 277° West 424 488 40,000  Level Cleveland Center
07:31AM 41.1131 -80.9222 279° West 424 488 40,000  Level Cleveland Center
07:32AM 41.1231 -81.0767 275° West 424 488 40,000  Level Cleveland Center
07:33AM 41.1408 -81.2394 278° West 418 481 40,000  Level Cleveland Center
07:34AM 41.1567 -81.3883 278° West 418 481 40,000  Level Cleveland Center
07:35AM 41.2161 -81.5050 304° West 411 473 40,000  Level Cleveland Center
07:36AM 41.3072 -81.5975 323° Northwest 405 466 40,000  Level Cleveland Center
07:37AM 41.3978 -81.7097 317° Northwest 399 459 40,000  Level Cleveland Center
07:38AM 41.5033 -81.7975 328° Northwest 430 495 40,000  Level Cleveland Center
07:39AM 41.5981 -81.8853 325° Northwest 430 495 40,000  Level Cleveland Center
07:40AM 41.6739 -81.9981 312° West 407 468 40,000  Level Cleveland Center
07:41AM 41.6658 -82.1397 266° West 358 412 40,000  Level Cleveland Center
07:42AM 41.6575 -82.2894 266° West 371 427 40,000  Level Cleveland Center
07:43AM 41.6489 -82.4367 266° West 387 445 40,000  Level Cleveland Center
07:44AM 41.6381 -82.5864 265° West 407 468 40,000  Level Cleveland Center
07:45AM 41.6311 -82.7333 266° West 400 460 40,000  Level Cleveland Center
07:46AM 41.6181 -82.8803 263° West 405 466 40,000  Level Cleveland Center
07:47AM 41.6086 -83.0297 265° West 405 466 40,000 -360 Level Cleveland Center
07:48AM 41.5989 -83.1822 265° West 405 466 39,300 -840 Descending Cleveland Center
07:49AM 41.5831 -83.3314 262° West 405 466 38,400 -1,020 Descending Cleveland Center
07:50AM 41.5711 -83.4808 264° West 405 466 37,300 -1,080 Descending Cleveland Center
07:51AM 41.5617 -83.5997 264° West 405 466 36,300 -660 Descending Cleveland Center
07:52AM 41.5489 -83.7603 264° West 405 466 36,000 -180 Descending Cleveland Center
07:53AM 41.5414 -83.9133 266° West 395 455 36,000 -300 Level Chicago Center
07:55AM 41.5297 -84.0606 264° West 397 457 35,500 -960 Descending Chicago Center
07:56AM 41.5181 -84.2083 264° West 401 461 34,100 -1,380 Descending Chicago Center
07:57AM 41.5042 -84.3578 263° West 405 466 32,700 -1,500 Descending Chicago Center
07:58AM 41.4894 -84.5383 264° West 409 471 31,100 -1,320 Descending Chicago Center
07:59AM 41.4806 -84.6892 266° West 409 471 30,000 -540 Descending Chicago Center
08:00AM 41.4875 -84.8353 274° West 397 457 30,000 -540 Level Chicago Center
08:01AM 41.4936 -84.9853 273° West 402 463 28,900 -1,440 Descending Chicago Center
08:02AM 41.4978 -85.1503 272° West 438 504 27,100 -1,800 Descending Chicago Center
08:03AM 41.5028 -85.3231 272° West 456 525 25,300 -2,040 Descending Chicago Center
08:04AM 41.5083 -85.4997 272° West 463 533 23,000 -2,340 Descending Chicago Center
08:05AM 41.5147 -85.6706 273° West 454 522 20,600 -2,340 Descending Chicago Center
08:06AM 41.5194 -85.8247 272° West 418 481 18,300 -2,160 Descending Chicago Center
08:07AM 41.5236 -85.9681 272° West 390 449 16,200 -2,160 Descending Chicago Center
08:08AM 41.5242 -86.1258 270° West 357 411 13,900 -1,860 Descending Chicago Center
08:09AM 41.5239 -86.2514 270° West 344 396 12,400 -1,500 Descending Chicago Center
08:10AM 41.5222 -86.3733 269° West 332 382 10,900 -1,200 Descending Chicago Center
08:11AM 41.5222 -86.4900 270° West 320 368 10,000 -540 Descending Chicago Center
08:12AM 41.5206 -86.5931 269° West 284 327 9,900 -480 Descending Chicago Center
08:13AM 41.5206 -86.6886 270° West 266 306 9,100 -840 Descending Chicago Center
08:14AM 41.5197 -86.8056 269° West 260 299 8,200 -840 Descending Chicago Center
08:15AM 41.5175 -86.9094 268° West 276 318 7,400 -840 Descending Chicago Center
08:16AM 41.5172 -87.0144 270° West 284 327 6,600 -720 Descending Chicago Center
08:17AM 41.5178 -87.1042 271° West 263 303 6,000 -300 Descending Chicago Center
08:18AM 41.5186 -87.1942 271° West 250 288 6,000  Level Chicago Center
08:19AM 41.5181 -87.2839 270° West 244 281 6,000 -120 Level Chicago Center
08:20AM 41.5225 -87.3758 274° West 212 244 5,800 -540 Descending Chicago Center
08:21AM 41.5583 -87.4389 307° West 225 259 5,000 -840 Descending Chicago Center
08:22AM 41.6028 -87.4972 316° Northwest 227 261 4,200 -540 Descending Chicago Center
08:23AM 41.6447 -87.5544 314° West 221 254 4,000 -300 Descending Chicago Center
08:24AM 41.6819 -87.6067 314° West 210 242 3,700 -720 Descending Chicago Center
08:25AM 41.7128 -87.6514 313° West 165 190 2,600 -840 Descending Chicago Center
08:26AM 41.7347 -87.6822 314° West 137 158 2,000 -600 Descending Chicago Center
08:27AM 41.7569 -87.7131 314° West 124 143 1,400 -540 Descending Chicago Center
08:29AM 41.7822 -87.7481 314° West 120 138 1,000 -420 Descending Chicago Center
08:30AM 41.7833 -87.7500 334° Northwest  Level FlightAware Approximate